createdAt,value
2018-02-08T00:00:39.626Z,62.70
2018-02-08T00:03:07.044Z,61.13
2018-02-08T00:05:34.481Z,60.92
2018-02-08T00:08:01.941Z,65.32
2018-02-08T00:10:29.379Z,63.20
2018-02-08T00:12:56.805Z,55.22
2018-02-08T00:15:24.236Z,60.28
2018-02-08T00:17:51.693Z,62.90
2018-02-08T00:20:19.118Z,52.50
2018-02-08T00:22:46.532Z,55.33
2018-02-08T00:25:13.974Z,51.50
2018-02-08T00:27:41.396Z,50.75
2018-02-08T00:30:08.837Z,56.47
2018-02-08T00:32:36.271Z,60.67
2018-02-08T00:35:03.702Z,57.67
2018-02-08T00:37:31.156Z,57.92
2018-02-08T00:39:58.569Z,60.12
2018-02-08T00:42:26.013Z,63.65
2018-02-08T00:44:53.431Z,61.55
2018-02-08T00:47:20.852Z,53.30
2018-02-08T00:49:48.294Z,63.47
2018-02-08T00:52:15.742Z,58.95
2018-02-08T00:54:43.179Z,58.08
2018-02-08T00:57:10.600Z,56.78
2018-02-08T00:59:38.034Z,56.00
2018-02-08T01:02:05.485Z,62.28
2018-02-08T01:04:32.921Z,54.15
2018-02-08T01:07:00.380Z,56.65
2018-02-08T01:09:27.834Z,57.88
2018-02-08T01:11:55.276Z,58.50
2018-02-08T01:14:22.687Z,59.20
2018-02-08T01:16:50.117Z,54.63
2018-02-08T01:19:17.602Z,66.05
2018-02-08T01:21:45.025Z,59.67
2018-02-08T01:24:12.451Z,60.88
2018-02-08T01:26:39.875Z,54.30
2018-02-08T01:29:07.300Z,55.95
2018-02-08T01:31:34.744Z,61.95
2018-02-08T01:34:02.189Z,56.08
2018-02-08T01:36:29.616Z,56.67
2018-02-08T01:38:57.028Z,59.45
2018-02-08T01:41:24.478Z,59.10
2018-02-08T01:43:51.927Z,63.80
2018-02-08T01:46:19.437Z,58.53
2018-02-08T01:48:46.853Z,53.22
2018-02-08T01:51:14.305Z,58.45
2018-02-08T01:53:41.773Z,53.33
2018-02-08T01:56:09.188Z,62.13
2018-02-08T01:58:36.621Z,59.35
2018-02-08T02:01:04.033Z,57.15
2018-02-08T02:03:31.452Z,52.38
2018-02-08T02:05:58.881Z,55.75
2018-02-08T02:08:26.292Z,55.08
2018-02-08T02:10:53.732Z,57.42
2018-02-08T02:13:21.147Z,53.60
2018-02-08T02:15:48.561Z,58.25
2018-02-08T02:18:15.977Z,55.33
2018-02-08T02:20:43.388Z,57.67
2018-02-08T02:23:10.817Z,52.97
2018-02-08T02:25:38.232Z,54.88
2018-02-08T02:28:05.642Z,59.85
2018-02-08T02:30:33.056Z,53.33
2018-02-08T02:33:00.469Z,52.83
2018-02-08T02:35:27.893Z,57.33
2018-02-08T02:37:55.344Z,54.33
2018-02-08T02:40:22.749Z,59.00
2018-02-08T02:42:50.178Z,54.80
2018-02-08T02:45:17.626Z,54.13
2018-02-08T02:47:45.021Z,56.78
2018-02-08T02:50:12.437Z,61.85
2018-02-08T02:52:39.850Z,56.40
2018-02-08T02:55:07.264Z,56.75
2018-02-08T02:57:34.697Z,54.60
2018-02-08T03:00:02.134Z,55.60
2018-02-08T03:02:29.560Z,60.00
2018-02-08T03:04:56.969Z,55.85
2018-02-08T03:07:24.394Z,54.83
2018-02-08T03:09:51.805Z,58.05
2018-02-08T03:12:19.236Z,54.47
2018-02-08T03:14:46.643Z,54.58
2018-02-08T03:17:14.058Z,55.38
2018-02-08T03:19:41.481Z,55.47
2018-02-08T03:22:08.884Z,52.88
2018-02-08T03:24:36.313Z,54.05
2018-02-08T03:27:03.724Z,52.67
2018-02-08T03:29:31.148Z,50.55
2018-02-08T03:31:58.560Z,55.92
2018-02-08T03:34:25.989Z,53.80
2018-02-08T03:36:53.412Z,54.10
2018-02-08T03:39:20.824Z,56.13
2018-02-08T03:41:48.241Z,62.88
2018-02-08T03:44:15.669Z,61.95
2018-02-08T03:46:43.080Z,61.03
2018-02-08T03:49:10.523Z,59.47
2018-02-08T03:51:37.988Z,63.15
2018-02-08T03:54:05.393Z,62.60
2018-02-08T03:56:32.805Z,56.63
2018-02-08T03:59:00.231Z,49.70
2018-02-08T04:01:27.649Z,55.75
2018-02-08T04:03:55.060Z,51.08
2018-02-08T04:06:22.473Z,58.87
2018-02-08T04:08:49.892Z,55.30
2018-02-08T04:11:17.308Z,51.95
2018-02-08T04:13:44.740Z,55.28
2018-02-08T04:16:12.152Z,48.63
2018-02-08T04:18:39.572Z,50.67
2018-02-08T04:21:06.981Z,54.58
2018-02-08T04:23:34.392Z,56.58
2018-02-08T04:26:01.821Z,50.45
2018-02-08T04:28:29.240Z,47.90
2018-02-08T04:30:56.652Z,46.50
2018-02-08T04:33:24.070Z,56.40
2018-02-08T04:35:51.488Z,55.35
2018-02-08T04:38:24.628Z,50.97
2018-02-08T04:41:03.860Z,52.88
2018-02-08T04:43:42.876Z,49.40
2018-02-08T04:46:21.837Z,54.08
2018-02-08T04:48:49.260Z,55.42
2018-02-08T04:51:16.681Z,47.83
2018-02-08T04:53:44.102Z,53.92
2018-02-08T04:56:11.521Z,50.75
2018-02-08T04:58:38.929Z,52.20
2018-02-08T05:01:06.356Z,55.70
2018-02-08T05:03:33.776Z,55.45
2018-02-08T05:06:01.197Z,55.65
2018-02-08T05:08:28.614Z,52.40
2018-02-08T05:10:56.023Z,52.47
2018-02-08T05:13:23.457Z,54.58
2018-02-08T05:15:50.877Z,48.05
2018-02-08T05:18:18.288Z,58.30
2018-02-08T05:20:45.708Z,53.83
2018-02-08T05:23:13.127Z,53.03
2018-02-08T05:25:40.552Z,54.78
2018-02-08T05:28:07.960Z,53.83
2018-02-08T05:30:35.376Z,58.38
2018-02-08T05:33:02.798Z,50.90
2018-02-08T05:35:30.208Z,53.22
2018-02-08T05:37:57.637Z,63.03
2018-02-08T05:40:25.052Z,54.75
2018-02-08T05:42:52.461Z,58.63
2018-02-08T05:45:19.937Z,58.72
2018-02-08T05:47:47.348Z,56.20
2018-02-08T05:50:14.781Z,55.08
2018-02-08T05:52:42.192Z,51.95
2018-02-08T05:55:09.607Z,57.15
2018-02-08T05:57:37.025Z,55.33
2018-02-08T06:00:04.456Z,54.08
2018-02-08T06:02:32.357Z,54.78
2018-02-08T06:04:59.777Z,51.13
2018-02-08T06:07:27.183Z,50.17
2018-02-08T06:09:54.604Z,55.53
2018-02-08T06:12:22.021Z,54.42
2018-02-08T06:14:49.460Z,58.97
2018-02-08T06:17:16.868Z,51.97
2018-02-08T06:19:44.288Z,52.50
2018-02-08T06:22:11.712Z,57.50
2018-02-08T06:24:39.120Z,58.22
2018-02-08T06:27:06.556Z,55.70
2018-02-08T06:29:33.974Z,56.00
2018-02-08T06:32:01.395Z,52.90
2018-02-08T06:34:28.813Z,53.97
2018-02-08T06:36:56.227Z,56.95
2018-02-08T06:39:23.675Z,56.10
2018-02-08T06:41:51.085Z,50.00
2018-02-08T06:44:18.502Z,55.33
2018-02-08T06:46:45.927Z,61.37
2018-02-08T06:49:13.337Z,61.65
2018-02-08T06:51:40.781Z,58.90
2018-02-08T06:54:08.428Z,56.80
2018-02-08T06:56:35.869Z,56.47
2018-02-08T06:59:03.277Z,52.22
2018-02-08T07:01:30.721Z,59.10
2018-02-08T07:03:58.145Z,62.97
2018-02-08T07:06:25.644Z,61.05
2018-02-08T07:08:53.517Z,58.13
2018-02-08T07:11:21.059Z,56.22
2018-02-08T07:13:48.515Z,57.85
2018-02-08T07:16:16.020Z,56.78
2018-02-08T07:18:43.440Z,58.13
2018-02-08T07:21:10.863Z,52.90
2018-02-08T07:23:38.281Z,56.30
2018-02-08T07:26:05.758Z,58.90
2018-02-08T07:28:33.165Z,57.65
2018-02-08T07:31:00.576Z,50.70
2018-02-08T07:33:28.005Z,54.78
2018-02-08T07:35:55.427Z,60.63
2018-02-08T07:38:22.837Z,59.75
2018-02-08T07:40:50.363Z,60.63
2018-02-08T07:43:17.776Z,68.45
2018-02-08T07:45:45.198Z,55.33
2018-02-08T07:48:12.604Z,62.42
2018-02-08T07:50:40.957Z,62.30
2018-02-08T07:53:08.410Z,62.78
2018-02-08T07:55:35.843Z,64.25
2018-02-08T07:58:03.272Z,60.03
2018-02-08T08:00:31.296Z,65.78
2018-02-08T08:02:58.705Z,61.03
2018-02-08T08:05:26.118Z,66.18
2018-02-08T08:07:53.537Z,63.35
2018-02-08T08:10:20.953Z,64.40
2018-02-08T08:12:48.364Z,60.75
2018-02-08T08:15:15.791Z,69.00
2018-02-08T08:17:43.200Z,61.37
2018-02-08T08:20:10.618Z,62.38
2018-02-08T08:22:38.038Z,64.30
2018-02-08T08:25:05.460Z,64.30
2018-02-08T08:27:32.897Z,62.72
2018-02-08T08:30:00.305Z,67.57
2018-02-08T08:32:27.721Z,64.82
2018-02-08T08:34:55.132Z,62.33
2018-02-08T08:37:22.585Z,67.80
2018-02-08T08:39:50.053Z,61.92
2018-02-08T08:42:17.460Z,59.95
2018-02-08T08:44:44.875Z,61.37
2018-02-08T08:47:12.325Z,65.18
2018-02-08T08:49:39.740Z,58.47
2018-02-08T08:52:07.162Z,62.50
2018-02-08T08:54:34.573Z,62.20
2018-02-08T08:57:01.986Z,57.17
2018-02-08T08:59:29.417Z,62.78
2018-02-08T09:01:56.837Z,60.45
2018-02-08T09:04:24.289Z,59.97
2018-02-08T09:06:51.684Z,73.28
2018-02-08T09:09:19.100Z,66.32
2018-02-08T09:11:46.520Z,62.92
2018-02-08T09:14:13.933Z,68.55
2018-02-08T09:16:41.372Z,61.55
2018-02-08T09:19:08.788Z,64.03
2018-02-08T09:21:36.213Z,65.97
2018-02-08T09:24:03.626Z,73.50
2018-02-08T09:26:31.040Z,64.78
2018-02-08T09:28:58.460Z,66.28
2018-02-08T09:31:25.876Z,66.47
2018-02-08T09:33:53.287Z,60.88
2018-02-08T09:36:20.701Z,64.90
2018-02-08T09:38:48.116Z,59.83
2018-02-08T09:41:15.552Z,59.58
2018-02-08T09:43:42.976Z,69.10
2018-02-08T09:46:10.377Z,67.78
2018-02-08T09:48:37.795Z,68.43
2018-02-08T09:51:05.204Z,62.80
2018-02-08T09:53:32.625Z,63.75
2018-02-08T09:56:00.039Z,62.65
2018-02-08T09:58:27.451Z,64.85
2018-02-08T10:00:54.872Z,69.40
2018-02-08T10:03:22.297Z,74.15
2018-02-08T10:05:49.728Z,69.97
2018-02-08T10:08:17.948Z,66.95
2018-02-08T10:10:45.358Z,57.78
2018-02-08T10:13:12.772Z,65.07
2018-02-08T10:15:40.186Z,60.58
2018-02-08T10:18:07.604Z,62.80
2018-02-08T10:20:35.021Z,64.30
2018-02-08T10:23:02.440Z,65.93
2018-02-08T10:25:29.857Z,68.47
2018-02-08T10:27:57.268Z,70.07
2018-02-08T10:30:24.694Z,71.15
2018-02-08T10:32:52.108Z,69.15
2018-02-08T10:35:19.524Z,70.62
2018-02-08T10:37:46.941Z,66.68
2018-02-08T10:40:14.366Z,61.08
2018-02-08T10:42:41.781Z,69.37
2018-02-08T10:45:09.196Z,64.00
2018-02-08T10:47:36.627Z,70.95
2018-02-08T10:50:04.044Z,61.20
2018-02-08T10:52:31.480Z,71.78
2018-02-08T10:54:58.901Z,61.55
2018-02-08T10:57:26.324Z,65.12
2018-02-08T10:59:53.752Z,68.60
2018-02-08T11:02:21.192Z,66.25
2018-02-08T11:04:48.618Z,62.97
2018-02-08T11:07:16.040Z,61.63
2018-02-08T11:09:43.751Z,61.80
2018-02-08T11:12:11.364Z,63.75
2018-02-08T11:14:38.781Z,72.15
2018-02-08T11:17:06.215Z,65.00
2018-02-08T11:19:33.632Z,62.08
2018-02-08T11:22:01.044Z,66.00
2018-02-08T11:24:28.463Z,65.97
2018-02-08T11:26:55.881Z,58.95
2018-02-08T11:29:23.313Z,61.63
2018-02-08T11:31:50.736Z,63.92
2018-02-08T11:34:18.144Z,58.30
2018-02-08T11:36:45.577Z,72.37
2018-02-08T11:39:12.997Z,60.33
2018-02-08T11:41:40.418Z,61.23
2018-02-08T11:44:07.820Z,61.67
2018-02-08T11:46:35.233Z,68.73
2018-02-08T11:49:02.653Z,60.03
2018-02-08T11:51:30.089Z,64.73
2018-02-08T11:53:57.713Z,69.75
2018-02-08T11:56:25.125Z,65.50
2018-02-08T11:58:52.576Z,70.43
2018-02-08T12:01:21.472Z,66.87
2018-02-08T12:03:53.332Z,70.67
2018-02-08T12:06:21.978Z,77.45
2018-02-08T12:08:49.393Z,66.62
2018-02-08T12:11:16.838Z,63.70
2018-02-08T12:13:44.276Z,65.50
2018-02-08T12:16:11.684Z,61.27
2018-02-08T12:18:39.120Z,63.92
2018-02-08T12:21:06.570Z,61.63
2018-02-08T12:23:34.004Z,59.10
2018-02-08T12:26:01.470Z,59.15
2018-02-08T12:28:28.880Z,68.68
2018-02-08T12:30:56.321Z,58.43
2018-02-08T12:33:23.792Z,61.47
2018-02-08T12:35:51.224Z,66.57
2018-02-08T12:38:18.644Z,55.40
2018-02-08T12:40:46.111Z,56.37
2018-02-08T12:43:13.541Z,57.87
2018-02-08T12:45:40.974Z,54.92
2018-02-08T12:48:08.378Z,52.90
2018-02-08T12:50:35.804Z,53.50
2018-02-08T12:53:03.212Z,51.60
2018-02-08T12:55:30.635Z,50.77
2018-02-08T12:57:58.041Z,49.20
2018-02-08T13:00:25.446Z,54.63
2018-02-08T13:02:52.856Z,50.80
2018-02-08T13:05:20.317Z,53.80
2018-02-08T13:07:47.896Z,52.93
2018-02-08T13:10:16.421Z,52.63
2018-02-08T13:12:43.826Z,58.87
2018-02-08T13:15:12.101Z,58.27
2018-02-08T13:17:39.507Z,53.90
2018-02-08T13:20:06.972Z,59.33
2018-02-08T13:22:34.395Z,50.83
2018-02-08T13:25:01.808Z,59.57
2018-02-08T13:27:29.326Z,62.23
2018-02-08T13:29:56.742Z,56.40
2018-02-08T13:32:24.181Z,54.67
2018-02-08T13:34:51.586Z,59.57
2018-02-08T13:37:19.028Z,54.70
2018-02-08T13:40:00.137Z,56.57
2018-02-08T13:42:28.116Z,54.73
2018-02-08T13:44:55.541Z,55.93
2018-02-08T13:47:22.945Z,57.07
2018-02-08T13:49:55.974Z,49.93
2018-02-08T13:55:37.884Z,56.63
2018-02-08T13:58:08.173Z,50.90
2018-02-08T14:00:40.449Z,52.83
2018-02-08T14:03:07.896Z,56.30
2018-02-08T14:05:35.296Z,58.60
2018-02-08T14:08:02.706Z,56.90
2018-02-08T14:10:30.140Z,55.17
2018-02-08T14:12:57.665Z,56.90
2018-02-08T14:15:25.087Z,53.57
2018-02-08T14:17:52.481Z,55.10
2018-02-08T14:20:19.888Z,51.60
2018-02-08T14:22:47.328Z,54.97
2018-02-08T14:25:14.732Z,54.60
2018-02-08T14:27:42.137Z,62.83
2018-02-08T14:30:09.557Z,57.60
2018-02-08T14:32:36.972Z,57.60
2018-02-08T14:35:04.409Z,60.33
2018-02-08T14:37:31.826Z,56.87
2018-02-08T14:39:59.236Z,53.93
2018-02-08T14:42:26.648Z,57.53
2018-02-08T14:44:54.052Z,56.23
2018-02-08T14:47:21.478Z,59.67
2018-02-08T14:49:48.889Z,62.80
2018-02-08T14:52:16.309Z,67.67
2018-02-08T14:54:43.745Z,66.57
2018-02-08T14:57:11.154Z,60.95
2018-02-08T14:59:38.572Z,52.17
2018-02-08T15:02:05.988Z,61.50
2018-02-08T15:04:33.404Z,59.50
2018-02-08T15:07:00.832Z,57.53
2018-02-08T15:09:28.241Z,56.97
2018-02-08T15:11:55.661Z,56.60
2018-02-08T15:14:23.080Z,57.35
2018-02-08T15:16:50.496Z,73.65
2018-02-08T15:19:17.926Z,60.65
2018-02-08T15:21:45.351Z,61.30
2018-02-08T15:24:12.776Z,57.55
2018-02-08T15:26:40.201Z,60.33
2018-02-08T15:29:07.620Z,58.90
2018-02-08T15:31:35.051Z,61.08
2018-02-08T15:34:02.464Z,64.18
2018-02-08T15:36:29.890Z,63.35
2018-02-08T15:38:57.327Z,63.53
2018-02-08T15:41:25.040Z,64.05
2018-02-08T15:43:52.839Z,59.38
2018-02-08T15:46:21.073Z,59.03
2018-02-08T15:48:48.922Z,65.53
2018-02-08T15:51:16.856Z,68.12
2018-02-08T15:53:48.958Z,58.72
2018-02-08T15:56:17.326Z,65.03
2018-02-08T15:58:45.968Z,63.42
2018-02-08T16:01:15.490Z,72.97
2018-02-08T16:03:43.337Z,65.85
2018-02-08T16:06:11.211Z,65.32
2018-02-08T16:08:43.524Z,63.20
2018-02-08T16:11:12.057Z,65.85
2018-02-08T16:13:48.678Z,67.62
2018-02-08T16:16:18.279Z,71.22
2018-02-08T16:18:48.191Z,68.75
2018-02-08T16:21:16.141Z,68.18
2018-02-08T16:23:44.307Z,71.45
2018-02-08T16:26:13.189Z,74.53
2018-02-08T16:28:41.926Z,66.03
2018-02-08T16:31:09.828Z,71.47
2018-02-08T16:33:38.281Z,64.82
2018-02-08T16:36:06.634Z,68.50
2018-02-08T16:38:48.598Z,67.72
2018-02-08T16:41:19.729Z,75.03
2018-02-08T16:43:47.232Z,71.22
2018-02-08T16:46:16.555Z,68.00
2018-02-08T16:48:51.490Z,70.65
2018-02-08T16:51:24.817Z,72.12
2018-02-08T16:53:55.754Z,67.70
2018-02-08T16:56:24.814Z,70.07
2018-02-08T16:58:55.094Z,66.22
2018-02-08T17:01:26.730Z,74.53
2018-02-08T17:06:29.804Z,72.43
2018-02-08T17:09:03.509Z,72.82
2018-02-08T17:11:30.950Z,74.05
2018-02-08T17:13:58.399Z,73.18
2018-02-08T17:16:25.907Z,66.53
2018-02-08T17:18:53.288Z,73.47
2018-02-08T17:21:20.712Z,70.07
2018-02-08T17:23:48.142Z,70.70
2018-02-08T17:26:15.699Z,72.50
2018-02-08T17:28:43.120Z,72.35
2018-02-08T17:31:10.533Z,72.82
2018-02-08T17:33:38.443Z,73.45
2018-02-08T17:36:05.893Z,71.30
2018-02-08T17:38:43.241Z,68.30
2018-02-08T17:41:11.568Z,65.75
2018-02-08T17:43:38.992Z,74.45
2018-02-08T17:46:06.412Z,68.47
2018-02-08T17:48:46.792Z,67.97
2018-02-08T17:51:14.204Z,68.12
2018-02-08T17:53:41.628Z,68.95
2018-02-08T17:56:09.078Z,71.68
2018-02-08T17:58:36.567Z,72.32
2018-02-08T18:01:03.941Z,70.25
2018-02-08T18:03:45.028Z,72.25
2018-02-08T18:06:12.490Z,66.55
2018-02-08T18:08:39.870Z,69.60
2018-02-08T18:11:07.313Z,66.65
2018-02-08T18:13:34.733Z,68.95
2018-02-08T18:16:02.232Z,71.82
2018-02-08T18:18:29.633Z,71.57
2018-02-08T18:20:57.056Z,73.10
2018-02-08T18:23:24.485Z,69.57
2018-02-08T18:25:51.921Z,71.25
2018-02-08T18:28:19.406Z,69.95
2018-02-08T18:30:46.840Z,67.47
2018-02-08T18:33:14.250Z,72.85
2018-02-08T18:35:41.685Z,68.10
2018-02-08T18:38:09.112Z,72.45
2018-02-08T18:40:36.537Z,71.90
2018-02-08T18:43:03.945Z,75.65
2018-02-08T18:45:31.414Z,70.53
2018-02-08T18:47:58.813Z,74.40
2018-02-08T18:50:26.264Z,69.68
2018-02-08T18:52:53.705Z,70.18
2018-02-08T18:55:21.192Z,67.72
2018-02-08T18:57:50.297Z,73.90
2018-02-08T19:00:18.397Z,76.30
2018-02-08T19:02:46.617Z,68.55
2018-02-08T19:05:14.051Z,69.15
2018-02-08T19:07:41.508Z,69.93
2018-02-08T19:10:08.937Z,61.90
2018-02-08T19:12:36.357Z,72.07
2018-02-08T19:15:03.864Z,72.43
2018-02-08T19:17:45.309Z,76.28
2018-02-08T19:20:12.756Z,69.82
2018-02-08T19:22:41.697Z,72.07
2018-02-08T19:25:09.139Z,79.97
2018-02-08T19:27:36.557Z,76.75
2018-02-08T19:30:04.437Z,76.32
2018-02-08T19:32:31.898Z,74.00
2018-02-08T19:34:59.930Z,76.82
2018-02-08T19:37:28.814Z,76.80
2018-02-08T19:39:56.848Z,79.22
2018-02-08T19:42:25.087Z,80.15
2018-02-08T19:44:53.225Z,75.80
2018-02-08T19:47:21.463Z,78.07
2018-02-08T19:49:50.176Z,87.60
2018-02-08T19:52:18.508Z,92.65
2018-02-08T19:54:45.971Z,128.82
2018-02-08T19:57:14.324Z,114.37
2018-02-08T19:59:47.571Z,90.72
2018-02-08T20:02:16.928Z,77.82
2018-02-08T20:04:45.137Z,87.55
2018-02-08T20:07:13.922Z,81.93
2018-02-08T20:09:41.411Z,77.55
2018-02-08T20:12:09.788Z,76.62
2018-02-08T20:14:52.660Z,73.68
2018-02-08T20:17:20.968Z,74.20
2018-02-08T20:19:48.390Z,77.50
2018-02-08T20:22:15.828Z,78.85
2018-02-08T20:24:44.324Z,75.82
2018-02-08T20:27:11.756Z,80.03
2018-02-08T20:29:39.185Z,85.65
2018-02-08T20:32:06.649Z,87.57
2018-02-08T20:34:34.094Z,86.78
2018-02-08T20:37:01.532Z,80.38
2018-02-08T20:39:28.988Z,81.12
2018-02-08T20:41:56.403Z,85.40
2018-02-08T20:44:23.821Z,81.93
2018-02-08T20:46:51.245Z,80.87
2018-02-08T20:49:18.677Z,84.05
2018-02-08T20:51:46.103Z,84.53
2018-02-08T20:54:13.513Z,88.55
2018-02-08T20:56:40.990Z,80.25
2018-02-08T20:59:08.438Z,76.47
2018-02-08T21:01:35.865Z,90.05
2018-02-08T21:04:03.322Z,81.25
2018-02-08T21:06:30.741Z,81.22
2018-02-08T21:08:58.157Z,79.70
2018-02-08T21:11:25.625Z,77.55
2018-02-08T21:13:53.084Z,85.43
2018-02-08T21:16:20.515Z,81.28
2018-02-08T21:18:47.941Z,81.30
2018-02-08T21:21:15.372Z,94.55
2018-02-08T21:23:42.821Z,84.62
2018-02-08T21:26:10.254Z,91.85
2018-02-08T21:28:37.693Z,90.50
2018-02-08T21:31:05.153Z,82.32
2018-02-08T21:33:32.581Z,90.30
2018-02-08T21:36:00.050Z,91.03
2018-02-08T21:38:27.485Z,86.53
2018-02-08T21:40:54.930Z,84.70
2018-02-08T21:43:22.373Z,87.68
2018-02-08T21:45:49.792Z,84.20
2018-02-08T21:48:17.240Z,96.05
2018-02-08T21:50:44.671Z,93.07
2018-02-08T21:53:12.088Z,88.10
2018-02-08T21:55:39.504Z,98.78
2018-02-08T21:58:06.953Z,89.93
2018-02-08T22:00:34.365Z,95.45
2018-02-08T22:03:01.832Z,97.97
2018-02-08T22:05:29.272Z,94.95
2018-02-08T22:07:56.706Z,96.18
2018-02-08T22:10:24.125Z,99.10
2018-02-08T22:12:51.556Z,99.78
2018-02-08T22:15:18.996Z,93.45
2018-02-08T22:17:46.460Z,94.13
2018-02-08T22:20:13.881Z,88.12
2018-02-08T22:22:41.335Z,94.20
2018-02-08T22:25:08.741Z,96.70
2018-02-08T22:27:36.173Z,86.97
2018-02-08T22:30:03.648Z,86.95
2018-02-08T22:32:31.065Z,97.70
2018-02-08T22:34:58.493Z,97.15
2018-02-08T22:37:25.901Z,97.15
2018-02-08T22:39:53.344Z,96.07
2018-02-08T22:42:20.807Z,91.00
2018-02-08T22:44:48.245Z,89.22
2018-02-08T22:47:15.662Z,82.30
2018-02-08T22:49:43.080Z,81.12
2018-02-08T22:52:10.505Z,85.65
2018-02-08T22:54:37.937Z,87.28
2018-02-08T22:57:05.365Z,93.03
2018-02-08T22:59:32.789Z,89.22
2018-02-08T23:02:00.220Z,95.22
2018-02-08T23:04:27.646Z,95.38
2018-02-08T23:06:55.070Z,103.07
2018-02-08T23:09:22.499Z,99.57
2018-02-08T23:11:49.917Z,99.80
2018-02-08T23:14:17.358Z,105.35
2018-02-08T23:16:44.832Z,99.72
2018-02-08T23:19:12.252Z,99.65
2018-02-08T23:21:39.685Z,101.82
2018-02-08T23:24:07.110Z,98.18
2018-02-08T23:26:34.556Z,111.50
2018-02-08T23:29:01.980Z,96.70
2018-02-08T23:31:29.405Z,99.82
2018-02-08T23:33:56.866Z,96.63
2018-02-08T23:36:24.294Z,95.80
2018-02-08T23:38:51.720Z,102.32
2018-02-08T23:41:19.168Z,103.97
2018-02-08T23:43:46.616Z,106.47
2018-02-08T23:46:14.038Z,105.07
2018-02-08T23:48:41.466Z,94.87
2018-02-08T23:51:08.905Z,94.75
2018-02-08T23:53:36.369Z,103.50
2018-02-08T23:56:03.800Z,99.22
2018-02-08T23:58:31.243Z,91.97
